Time;durP1;ratioP1;P1;durP2;ratioP2;P2;SDS_P1;SDS_P2;PMS_P1;PMS_P2;Temp;Humidity;BMP_temperature;BMP_pressure;BME280_temperature;BME280_humidity;BME280_pressure;Samples;Min_cycle;Max_cycle;Signal;HPM_P1;HPM_P2
2023/06/16 00:01:06;;;;;;;6.38;4.25;;;13.30;99.90;;;;;;5074779;28;20393;-76
2023/06/16 00:03:35;;;;;;;5.70;4.47;;;13.30;99.90;;;;;;5074767;28;20024;-77
2023/06/16 00:06:13;;;;;;;9.38;4.53;;;13.30;99.90;;;;;;5075198;28;20021;-76
2023/06/16 00:08:54;;;;;;;4.95;4.05;;;13.20;99.90;;;;;;5075410;28;20012;-76
2023/06/16 00:11:20;;;;;;;5.32;4.22;;;13.20;99.90;;;;;;5074736;28;20016;-76
2023/06/16 00:13:48;;;;;;;6.93;4.95;;;13.20;99.90;;;;;;5074980;28;20020;-75
2023/06/16 00:16:19;;;;;;;5.80;4.20;;;13.20;99.90;;;;;;5074164;28;20023;-74
2023/06/16 00:18:46;;;;;;;6.60;4.60;;;13.10;99.90;;;;;;5074903;28;20020;-76
2023/06/16 00:21:19;;;;;;;5.63;4.28;;;13.10;99.90;;;;;;5075179;28;20404;-76
2023/06/16 00:23:48;;;;;;;5.15;4.25;;;13.10;99.90;;;;;;5056419;28;20379;-77
2023/06/16 00:26:13;;;;;;;4.90;4.40;;;13.10;99.90;;;;;;5073906;28;20432;-77
2023/06/16 00:28:40;;;;;;;4.72;4.03;;;13.10;99.90;;;;;;5073967;28;20020;-76
2023/06/16 00:31:06;;;;;;;6.10;3.95;;;13.00;99.90;;;;;;5074023;28;20100;-75
2023/06/16 00:33:32;;;;;;;4.68;3.92;;;13.10;99.90;;;;;;5074098;28;20021;-76
2023/06/16 00:35:58;;;;;;;6.15;3.75;;;13.00;99.90;;;;;;5078115;28;20021;-76
2023/06/16 00:38:23;;;;;;;5.40;4.90;;;13.10;99.90;;;;;;5078448;28;20032;-76
2023/06/16 00:40:49;;;;;;;7.78;4.75;;;13.00;99.90;;;;;;5078517;28;20389;-76
2023/06/16 00:43:15;;;;;;;6.38;4.07;;;13.00;99.90;;;;;;5078203;28;20039;-76
2023/06/16 00:45:41;;;;;;;10.18;4.85;;;13.10;99.90;;;;;;5078177;28;20429;-76
2023/06/16 00:48:06;;;;;;;7.93;4.90;;;13.10;99.90;;;;;;5077085;28;20036;-78
2023/06/16 00:50:33;;;;;;;6.53;4.10;;;13.00;99.90;;;;;;5077874;28;20103;-76
2023/06/16 00:52:59;;;;;;;6.93;4.57;;;12.90;99.90;;;;;;5078793;28;20469;-76
2023/06/16 00:55:25;;;;;;;8.23;4.70;;;12.90;99.90;;;;;;5078338;28;20706;-76
2023/06/16 00:57:53;;;;;;;6.07;4.93;;;12.90;99.90;;;;;;5077303;28;20017;-75
2023/06/16 01:00:20;;;;;;;5.85;4.65;;;12.90;99.90;;;;;;5078149;28;20133;-77
2023/06/16 01:02:47;;;;;;;4.35;3.88;;;12.90;99.90;;;;;;5078215;28;20088;-77
2023/06/16 01:05:19;;;;;;;6.10;4.95;;;12.90;99.90;;;;;;5077401;28;20099;-78
2023/06/16 01:08:11;;;;;;;5.95;4.40;;;12.80;99.90;;;;;;5078028;28;20024;-77
2023/06/16 01:11:09;;;;;;;8.02;5.22;;;12.80;99.90;;;;;;5078305;28;20016;-77
2023/06/16 01:14:12;;;;;;;6.00;4.53;;;12.90;99.90;;;;;;5078365;28;20473;-77
2023/06/16 01:16:41;;;;;;;5.88;4.30;;;12.90;99.90;;;;;;5074502;28;20040;-76
2023/06/16 01:19:17;;;;;;;5.97;4.75;;;12.90;99.90;;;;;;5077775;28;20401;-77
2023/06/16 01:22:21;;;;;;;5.72;4.32;;;12.90;99.90;;;;;;5077941;28;20028;-77
2023/06/16 01:24:47;;;;;;;12.75;5.05;;;12.70;99.90;;;;;;4995481;28;20057;-74
2023/06/16 01:27:17;;;;;;;4.97;4.25;;;12.70;99.90;;;;;;4995792;28;20038;-77
2023/06/16 01:29:46;;;;;;;5.97;4.57;;;12.70;99.90;;;;;;5036218;28;20035;-75
2023/06/16 01:32:14;;;;;;;5.72;4.65;;;12.70;99.90;;;;;;5077764;28;20099;-76
2023/06/16 01:34:41;;;;;;;5.45;4.40;;;12.60;99.90;;;;;;5077901;28;20021;-76
2023/06/16 01:37:08;;;;;;;5.38;3.85;;;12.50;99.90;;;;;;5077215;28;20070;-76
2023/06/16 01:39:35;;;;;;;6.50;4.35;;;12.60;99.90;;;;;;5077606;28;20028;-75
2023/06/16 01:42:02;;;;;;;9.20;4.25;;;12.60;99.90;;;;;;5077755;28;20017;-75
2023/06/16 01:44:29;;;;;;;4.88;4.22;;;12.70;99.90;;;;;;5077593;28;20116;-75
2023/06/16 01:46:55;;;;;;;5.68;4.03;;;12.80;99.90;;;;;;5077296;28;20029;-76
2023/06/16 01:49:22;;;;;;;5.75;4.03;;;12.80;99.90;;;;;;5077275;28;20028;-74
2023/06/16 01:51:47;;;;;;;5.05;3.47;;;12.80;99.90;;;;;;5077455;28;20023;-76
2023/06/16 01:54:13;;;;;;;5.85;4.35;;;12.90;99.90;;;;;;5077604;28;20020;-76
2023/06/16 01:56:39;;;;;;;4.53;4.10;;;12.90;99.90;;;;;;5076795;28;20134;-74
2023/06/16 01:59:04;;;;;;;4.30;3.70;;;12.90;99.90;;;;;;5077236;28;20035;-74
2023/06/16 02:01:37;;;;;;;4.88;3.85;;;12.90;99.90;;;;;;5077020;28;20031;-76
2023/06/16 02:04:15;;;;;;;12.13;4.75;;;12.90;99.90;;;;;;5076856;28;20017;-76
2023/06/16 02:07:21;;;;;;;5.82;4.13;;;12.80;99.90;;;;;;5075522;28;20100;-77
2023/06/16 02:09:49;;;;;;;6.38;4.35;;;12.70;99.90;;;;;;4995388;28;20692;-76
2023/06/16 02:12:16;;;;;;;7.15;4.40;;;12.80;99.90;;;;;;4995295;28;20038;-76
2023/06/16 02:14:43;;;;;;;6.30;3.97;;;12.70;99.90;;;;;;5035711;28;20036;-76
2023/06/16 02:17:12;;;;;;;5.22;4.63;;;12.70;99.90;;;;;;5076561;28;20038;-76
2023/06/16 02:19:38;;;;;;;6.28;4.50;;;12.80;99.90;;;;;;5076995;28;20032;-76
2023/06/16 02:22:04;;;;;;;5.18;4.18;;;12.80;99.90;;;;;;5077053;28;20024;-76
2023/06/16 02:24:31;;;;;;;5.65;4.35;;;12.70;99.90;;;;;;5076776;28;20023;-76
2023/06/16 02:26:57;;;;;;;7.70;4.97;;;12.70;99.90;;;;;;5076614;28;20059;-76
2023/06/16 02:29:22;;;;;;;6.78;4.82;;;12.80;99.90;;;;;;5076702;28;20017;-75
2023/06/16 02:31:50;;;;;;;12.25;4.30;;;12.90;99.90;;;;;;5076706;28;20028;-74
2023/06/16 02:34:17;;;;;;;5.45;4.05;;;12.70;99.90;;;;;;5076403;28;20032;-75
2023/06/16 02:36:43;;;;;;;6.53;4.57;;;12.70;99.90;;;;;;5075639;28;20501;-76
2023/06/16 02:39:10;;;;;;;5.13;3.80;;;12.60;99.90;;;;;;5076458;28;20446;-76
2023/06/16 02:41:36;;;;;;;8.00;4.53;;;12.60;99.90;;;;;;5076838;28;20021;-76
2023/06/16 02:44:03;;;;;;;4.65;3.97;;;12.60;99.90;;;;;;5076134;28;20307;-76
2023/06/16 02:46:28;;;;;;;11.38;5.28;;;12.60;99.90;;;;;;5075939;28;20036;-76
2023/06/16 02:48:54;;;;;;;6.53;4.63;;;12.50;99.90;;;;;;5076464;28;20012;-76
2023/06/16 02:51:19;;;;;;;7.85;4.85;;;12.50;99.90;;;;;;5076218;28;20103;-76
2023/06/16 02:53:46;;;;;;;10.85;5.03;;;12.40;99.90;;;;;;5075833;28;20099;-77
2023/06/16 02:56:12;;;;;;;7.93;4.82;;;12.30;99.90;;;;;;5075488;28;20120;-75
2023/06/16 02:58:38;;;;;;;7.63;4.95;;;12.30;99.90;;;;;;5074617;28;20035;-76
2023/06/16 03:01:04;;;;;;;7.35;4.55;;;12.30;99.90;;;;;;5075752;28;20020;-76
2023/06/16 03:03:31;;;;;;;7.85;4.90;;;12.20;99.90;;;;;;5076082;28;20020;-76
2023/06/16 03:06:00;;;;;;;5.82;3.85;;;12.10;99.90;;;;;;5075561;28;20086;-76
2023/06/16 03:08:26;;;;;;;8.05;4.65;;;12.10;99.90;;;;;;5075843;28;20020;-76
2023/06/16 03:10:51;;;;;;;10.75;6.05;;;12.20;99.90;;;;;;5076153;28;20021;-75
2023/06/16 03:13:18;;;;;;;5.75;4.13;;;12.20;99.90;;;;;;5075635;28;20024;-76
2023/06/16 03:15:44;;;;;;;6.18;4.78;;;12.10;99.90;;;;;;5075424;28;20025;-75
2023/06/16 03:18:10;;;;;;;5.18;4.45;;;12.10;99.90;;;;;;5075378;28;20024;-75
2023/06/16 03:20:36;;;;;;;5.75;4.72;;;12.10;99.90;;;;;;5075924;28;20028;-75
2023/06/16 03:23:02;;;;;;;5.25;4.38;;;12.00;99.90;;;;;;5075491;28;20477;-76
2023/06/16 03:25:30;;;;;;;7.13;5.10;;;11.90;99.90;;;;;;5075683;28;20043;-75
2023/06/16 03:27:56;;;;;;;7.40;4.60;;;11.90;99.90;;;;;;5075196;28;20074;-76
2023/06/16 03:30:21;;;;;;;7.93;4.15;;;11.80;99.90;;;;;;5076011;28;20028;-77
2023/06/16 03:32:47;;;;;;;6.55;4.75;;;11.90;99.90;;;;;;5076185;28;20032;-76
2023/06/16 03:35:13;;;;;;;6.20;5.07;;;13.60;99.90;;;;;;5074051;28;20024;-77
2023/06/16 03:37:39;;;;;;;6.57;5.40;;;14.70;99.90;;;;;;5073839;28;20028;-76
2023/06/16 03:40:06;;;;;;;6.90;4.50;;;15.20;99.90;;;;;;5057181;28;20397;-76
2023/06/16 03:42:35;;;;;;;7.22;4.05;;;15.10;99.90;;;;;;5075221;28;20024;-77
2023/06/16 03:45:01;;;;;;;8.02;4.65;;;15.20;99.90;;;;;;5075280;28;20023;-74
2023/06/16 03:47:27;;;;;;;7.32;4.38;;;15.30;99.90;;;;;;5074219;28;20033;-77
2023/06/16 03:49:54;;;;;;;5.65;4.45;;;15.20;99.90;;;;;;5075466;28;20020;-76
2023/06/16 03:52:20;;;;;;;4.55;3.70;;;15.30;99.90;;;;;;5076291;28;20536;-76
2023/06/16 03:54:46;;;;;;;9.18;4.47;;;14.90;99.90;;;;;;5057870;28;20033;-76
2023/06/16 03:57:13;;;;;;;4.75;3.70;;;15.10;99.90;;;;;;5075377;28;20025;-76
2023/06/16 03:59:38;;;;;;;5.80;4.32;;;15.40;99.90;;;;;;5075697;28;20017;-77
2023/06/16 04:02:07;;;;;;;5.47;4.35;;;15.30;99.90;;;;;;5075683;28;20043;-77
2023/06/16 04:04:36;;;;;;;5.78;4.50;;;15.20;99.90;;;;;;5075768;28;20021;-75
2023/06/16 04:07:03;;;;;;;7.45;5.07;;;15.40;99.90;;;;;;5075656;28;20033;-75
2023/06/16 04:09:30;;;;;;;7.20;4.45;;;15.20;99.90;;;;;;5076495;28;20028;-76
2023/06/16 04:11:56;;;;;;;5.38;4.32;;;14.80;99.90;;;;;;5076053;28;20024;-75
2023/06/16 04:14:22;;;;;;;4.82;3.67;;;14.90;99.90;;;;;;5075890;28;20103;-75
2023/06/16 04:16:48;;;;;;;5.32;4.40;;;15.00;99.90;;;;;;5076035;28;20493;-74
2023/06/16 04:19:15;;;;;;;6.25;4.45;;;15.20;99.90;;;;;;5076598;28;20436;-75
2023/06/16 04:21:41;;;;;;;6.03;4.07;;;15.40;99.90;;;;;;5076036;28;20019;-76
2023/06/16 04:24:08;;;;;;;4.93;3.25;;;15.20;99.90;;;;;;5076117;28;20099;-76
2023/06/16 04:26:34;;;;;;;6.32;4.05;;;15.30;99.90;;;;;;5075420;28;20020;-76
2023/06/16 04:29:03;;;;;;;4.88;4.07;;;15.80;99.90;;;;;;5075825;28;20036;-76
2023/06/16 04:31:31;;;;;;;5.55;4.03;;;16.20;99.90;;;;;;5075873;28;20069;-77
2023/06/16 04:33:58;;;;;;;4.95;3.40;;;16.60;99.90;;;;;;5075587;28;20074;-77
2023/06/16 04:36:29;;;;;;;7.03;3.50;;;16.50;99.90;;;;;;5074875;28;20021;-76
2023/06/16 04:38:56;;;;;;;5.43;3.65;;;16.30;99.90;;;;;;5076315;28;20017;-77
2023/06/16 04:41:22;;;;;;;4.47;3.63;;;15.80;99.90;;;;;;5076070;28;20091;-76
2023/06/16 04:43:48;;;;;;;3.70;3.35;;;15.90;99.90;;;;;;5075767;28;20052;-75
2023/06/16 04:46:14;;;;;;;4.15;3.75;;;16.10;99.90;;;;;;5075247;28;20408;-76
2023/06/16 04:48:39;;;;;;;7.75;4.15;;;16.00;99.90;;;;;;5075856;28;20032;-77
2023/06/16 04:51:05;;;;;;;5.45;3.42;;;16.00;99.90;;;;;;5075722;28;20029;-76
2023/06/16 04:53:31;;;;;;;4.88;3.88;;;15.90;99.90;;;;;;5076384;28;20162;-76
2023/06/16 04:55:57;;;;;;;4.28;3.40;;;15.70;99.90;;;;;;5075778;28;20496;-75
2023/06/16 04:58:23;;;;;;;4.43;3.88;;;16.00;99.90;;;;;;5075170;28;20024;-74
2023/06/16 05:00:48;;;;;;;6.18;4.20;;;15.90;99.90;;;;;;5075157;28;20392;-76
2023/06/16 05:03:14;;;;;;;8.88;5.70;;;15.80;99.90;;;;;;5076200;28;20631;-77
2023/06/16 05:05:39;;;;;;;6.43;5.10;;;15.90;99.90;;;;;;5074380;28;20488;-75
2023/06/16 05:08:05;;;;;;;5.20;4.47;;;16.00;99.90;;;;;;5073930;28;20029;-76
2023/06/16 05:10:31;;;;;;;5.68;3.38;;;16.30;99.90;;;;;;5072459;28;20059;-76
2023/06/16 05:13:00;;;;;;;4.57;3.40;;;16.40;99.90;;;;;;5071960;28;20119;-77
2023/06/16 05:15:27;;;;;;;4.90;3.38;;;16.80;99.90;;;;;;5071842;28;20358;-76
2023/06/16 05:17:52;;;;;;;4.80;3.97;;;17.10;99.90;;;;;;5071694;28;20028;-76
2023/06/16 05:20:18;;;;;;;6.85;3.42;;;17.10;99.90;;;;;;5072713;28;20017;-77
2023/06/16 05:22:44;;;;;;;6.32;3.83;;;17.20;99.80;;;;;;5075444;28;20025;-76
2023/06/16 05:25:10;;;;;;;3.72;3.35;;;17.40;99.80;;;;;;5075369;28;20021;-77
2023/06/16 05:27:35;;;;;;;4.80;3.50;;;17.50;99.20;;;;;;5075036;28;20032;-77
2023/06/16 05:30:01;;;;;;;3.20;2.90;;;17.40;99.30;;;;;;5075249;28;20028;-77
2023/06/16 05:32:27;;;;;;;4.03;3.22;;;17.60;99.50;;;;;;5075292;28;20017;-77
2023/06/16 05:34:53;;;;;;;11.75;4.10;;;17.90;98.70;;;;;;5074935;28;20020;-77
2023/06/16 05:37:20;;;;;;;4.80;3.20;;;17.90;98.20;;;;;;5074142;28;20050;-76
2023/06/16 05:39:47;;;;;;;4.35;3.47;;;18.20;97.60;;;;;;5075053;28;20016;-77
2023/06/16 05:42:14;;;;;;;7.03;3.38;;;18.40;96.70;;;;;;5075007;28;20019;-76
2023/06/16 05:44:43;;;;;;;5.18;3.92;;;18.60;95.80;;;;;;5074898;28;20534;-76
2023/06/16 05:47:10;;;;;;;3.92;2.75;;;18.70;95.80;;;;;;5074623;28;20075;-76
2023/06/16 05:49:36;;;;;;;4.32;3.25;;;18.80;95.70;;;;;;5074286;28;20033;-77
2023/06/16 05:52:03;;;;;;;4.55;3.40;;;19.00;96.10;;;;;;5075425;28;20405;-76
2023/06/16 05:54:29;;;;;;;4.25;3.42;;;18.90;96.10;;;;;;5076412;28;20028;-77
2023/06/16 05:56:56;;;;;;;5.65;3.67;;;19.00;95.80;;;;;;5074700;28;20020;-75
2023/06/16 05:59:22;;;;;;;8.43;3.58;;;19.00;95.50;;;;;;5075388;28;20021;-75
2023/06/16 06:01:51;;;;;;;3.33;3.00;;;19.00;96.30;;;;;;5074709;28;20093;-75
2023/06/16 06:04:21;;;;;;;3.97;3.05;;;19.00;96.00;;;;;;5075199;28;20021;-75
2023/06/16 06:06:48;;;;;;;5.15;3.28;;;18.90;95.20;;;;;;5075284;28;20412;-76
2023/06/16 06:09:13;;;;;;;3.40;2.47;;;18.90;95.40;;;;;;5074455;28;20058;-74
2023/06/16 06:11:39;;;;;;;3.13;2.38;;;19.00;92.40;;;;;;5074713;28;20052;-75
2023/06/16 06:14:05;;;;;;;2.88;2.40;;;19.10;90.50;;;;;;5075723;28;20056;-74
2023/06/16 06:16:31;;;;;;;3.30;2.72;;;19.20;91.20;;;;;;5074629;28;20098;-76
2023/06/16 06:18:56;;;;;;;3.53;2.67;;;19.40;92.50;;;;;;5075188;28;20413;-76
2023/06/16 06:21:22;;;;;;;5.80;2.45;;;19.60;91.60;;;;;;5073605;28;20051;-76
2023/06/16 06:23:48;;;;;;;4.35;2.70;;;19.90;91.30;;;;;;5073466;28;20530;-76
2023/06/16 06:26:13;;;;;;;2.75;2.05;;;20.10;90.90;;;;;;5073200;28;20023;-75
2023/06/16 06:28:39;;;;;;;5.18;2.97;;;20.20;90.50;;;;;;5072646;28;20021;-76
2023/06/16 06:31:05;;;;;;;3.67;2.42;;;20.40;90.50;;;;;;5073077;28;20032;-76
2023/06/16 06:33:31;;;;;;;2.15;1.95;;;20.50;88.50;;;;;;5072123;28;20027;-76
2023/06/16 06:35:57;;;;;;;2.20;2.00;;;20.70;87.10;;;;;;5072760;28;20021;-76
2023/06/16 06:38:22;;;;;;;3.13;2.53;;;20.90;88.00;;;;;;5072270;28;20103;-76
2023/06/16 06:40:48;;;;;;;2.80;2.33;;;20.80;87.10;;;;;;5072459;28;20020;-75
2023/06/16 06:43:14;;;;;;;2.97;2.38;;;20.90;85.50;;;;;;5072701;28;20509;-75
2023/06/16 06:45:39;;;;;;;2.97;2.60;;;21.00;84.40;;;;;;5069621;28;20100;-76
2023/06/16 06:48:05;;;;;;;5.93;2.25;;;21.10;84.70;;;;;;5065031;28;20481;-76
2023/06/16 06:50:30;;;;;;;5.30;2.10;;;21.30;83.40;;;;;;5073016;28;20036;-75
2023/06/16 06:52:56;;;;;;;3.65;2.20;;;21.40;83.40;;;;;;5073121;28;20052;-75
2023/06/16 06:55:22;;;;;;;2.72;2.50;;;21.40;83.20;;;;;;5072723;28;20117;-76
2023/06/16 06:57:49;;;;;;;2.45;2.00;;;21.50;82.60;;;;;;5072565;28;20027;-75
2023/06/16 07:00:15;;;;;;;1.90;1.67;;;21.70;82.00;;;;;;5072788;28;20020;-75
2023/06/16 07:02:41;;;;;;;10.18;4.05;;;21.80;80.70;;;;;;5072478;28;20116;-77
2023/06/16 07:05:08;;;;;;;2.22;1.85;;;21.80;80.40;;;;;;5072583;28;20040;-75
2023/06/16 07:07:34;;;;;;;2.45;1.95;;;21.80;75.20;;;;;;5072226;28;20055;-75
2023/06/16 07:10:00;;;;;;;3.78;2.03;;;21.80;72.10;;;;;;5072385;28;20024;-75
2023/06/16 07:12:25;;;;;;;3.28;2.00;;;21.80;72.90;;;;;;5072691;28;20031;-75
2023/06/16 07:14:51;;;;;;;4.65;2.40;;;21.80;70.60;;;;;;5072462;28;20051;-75
2023/06/16 07:17:17;;;;;;;2.22;1.90;;;22.10;76.20;;;;;;5072385;28;20028;-76
2023/06/16 07:19:43;;;;;;;2.08;1.58;;;22.20;73.10;;;;;;5071956;28;20023;-75
2023/06/16 07:22:09;;;;;;;2.15;1.75;;;22.40;71.40;;;;;;5072245;28;20031;-75
2023/06/16 07:24:35;;;;;;;2.22;2.03;;;22.50;69.50;;;;;;5072134;28;20489;-76
2023/06/16 07:27:01;;;;;;;5.05;2.30;;;22.60;70.80;;;;;;5072209;28;20024;-76
2023/06/16 07:29:28;;;;;;;6.03;2.72;;;22.60;71.20;;;;;;5072145;28;20031;-75
2023/06/16 07:31:54;;;;;;;3.30;2.00;;;22.50;70.00;;;;;;5072223;28;20025;-75
2023/06/16 07:34:20;;;;;;;2.03;1.70;;;22.50;71.60;;;;;;5072276;28;20503;-75
2023/06/16 07:36:45;;;;;;;2.63;1.73;;;22.60;70.10;;;;;;5071906;28;20031;-75
2023/06/16 07:39:11;;;;;;;1.90;1.70;;;22.60;69.50;;;;;;5072024;28;20027;-75
2023/06/16 07:41:37;;;;;;;3.03;2.10;;;22.40;69.10;;;;;;5072077;28;20031;-76
2023/06/16 07:44:04;;;;;;;2.38;1.73;;;22.50;70.50;;;;;;5071670;28;20021;-76
2023/06/16 07:46:32;;;;;;;3.03;2.22;;;22.50;69.70;;;;;;5071770;28;20029;-76
2023/06/16 07:48:57;;;;;;;2.95;1.75;;;22.70;70.90;;;;;;5072435;28;20021;-77
2023/06/16 07:51:23;;;;;;;5.38;2.25;;;22.80;70.90;;;;;;5073869;28;20628;-77
2023/06/16 07:53:49;;;;;;;4.63;1.88;;;23.00;72.10;;;;;;5075270;28;20385;-76
2023/06/16 07:56:16;;;;;;;2.00;1.80;;;23.10;69.10;;;;;;5074622;28;20020;-77
2023/06/16 07:58:42;;;;;;;2.55;2.25;;;23.30;69.00;;;;;;5072806;28;20028;-77
2023/06/16 08:01:08;;;;;;;1.42;1.30;;;23.30;67.90;;;;;;5075944;28;20016;-76
2023/06/16 08:03:34;;;;;;;3.15;2.45;;;23.30;67.10;;;;;;5074433;28;20025;-77
2023/06/16 08:06:00;;;;;;;5.88;2.35;;;23.40;66.40;;;;;;5073956;28;20032;-77
2023/06/16 08:08:27;;;;;;;2.33;1.83;;;23.40;68.60;;;;;;5072360;28;20043;-76
2023/06/16 08:10:56;;;;;;;1.40;1.30;;;23.50;66.90;;;;;;5071863;28;20099;-76
2023/06/16 08:13:22;;;;;;;2.30;2.08;;;23.60;66.90;;;;;;5071854;28;20535;-76
2023/06/16 08:15:48;;;;;;;1.98;1.80;;;23.60;64.70;;;;;;5071667;28;20112;-76
2023/06/16 08:18:13;;;;;;;2.67;1.90;;;23.60;65.00;;;;;;5071550;28;20472;-76
2023/06/16 08:20:39;;;;;;;2.85;1.90;;;23.30;64.00;;;;;;5071804;28;20025;-76
2023/06/16 08:23:05;;;;;;;2.78;1.75;;;23.20;66.40;;;;;;5071322;28;20477;-74
2023/06/16 08:25:30;;;;;;;1.88;1.73;;;23.30;64.40;;;;;;5071657;28;20024;-76
2023/06/16 08:27:56;;;;;;;2.67;1.52;;;23.40;64.80;;;;;;5071604;28;20055;-76
2023/06/16 08:30:22;;;;;;;4.82;2.30;;;23.60;63.00;;;;;;5071942;28;20458;-76
2023/06/16 08:32:48;;;;;;;1.63;1.48;;;23.70;62.70;;;;;;5071872;28;20099;-76
2023/06/16 08:35:14;;;;;;;2.42;1.70;;;23.80;63.00;;;;;;5071646;28;20063;-76
2023/06/16 08:37:40;;;;;;;2.58;1.42;;;23.70;59.10;;;;;;5071407;28;20024;-76
2023/06/16 08:40:08;;;;;;;1.52;1.42;;;23.80;59.10;;;;;;5071981;28;20104;-76
2023/06/16 08:42:36;;;;;;;2.95;1.35;;;24.10;59.50;;;;;;5071926;28;20017;-76
2023/06/16 08:45:04;;;;;;;4.55;1.48;;;24.10;59.90;;;;;;5071453;28;20021;-76
2023/06/16 08:47:30;;;;;;;2.63;1.98;;;23.90;59.90;;;;;;5071510;28;20441;-75
2023/06/16 08:49:56;;;;;;;2.50;1.90;;;23.90;57.30;;;;;;5071874;28;20063;-75
2023/06/16 08:52:28;;;;;;;1.95;1.60;;;24.20;59.80;;;;;;5071964;28;20028;-76
2023/06/16 08:54:57;;;;;;;7.18;1.77;;;24.40;56.80;;;;;;5072451;28;20021;-76
2023/06/16 08:57:24;;;;;;;1.45;1.35;;;24.70;56.40;;;;;;5077037;28;20070;-76
2023/06/16 08:59:54;;;;;;;2.33;1.42;;;24.70;55.30;;;;;;5077898;28;20017;-75
2023/06/16 09:02:21;;;;;;;1.33;1.23;;;24.50;54.80;;;;;;5078545;28;20027;-75
2023/06/16 09:04:47;;;;;;;1.60;1.38;;;24.50;53.70;;;;;;5084572;28;20049;-75
2023/06/16 09:07:19;;;;;;;1.58;1.15;;;24.30;53.40;;;;;;5080834;28;20031;-76
2023/06/16 09:09:48;;;;;;;1.30;1.20;;;24.20;51.80;;;;;;5082907;28;20378;-74
2023/06/16 09:12:14;;;;;;;4.80;1.40;;;24.10;53.50;;;;;;5081951;28;20040;-75
2023/06/16 09:14:41;;;;;;;2.72;1.30;;;24.40;55.30;;;;;;5084256;28;20029;-75
2023/06/16 09:17:09;;;;;;;2.28;1.60;;;24.70;53.90;;;;;;5080095;28;20025;-76
2023/06/16 09:19:47;;;;;;;1.70;1.60;;;24.80;52.50;;;;;;5074578;28;20051;-76
2023/06/16 09:22:18;;;;;;;4.38;1.27;;;25.10;53.90;;;;;;5074787;28;20029;-77
2023/06/16 09:24:52;;;;;;;4.75;1.48;;;25.10;51.20;;;;;;5074929;28;20024;-76
2023/06/16 09:27:18;;;;;;;2.25;1.67;;;25.00;52.60;;;;;;5074666;28;20036;-77
2023/06/16 09:29:50;;;;;;;1.42;1.30;;;25.20;52.00;;;;;;5074668;28;20024;-77
2023/06/16 09:32:16;;;;;;;2.13;1.67;;;25.00;51.70;;;;;;5074735;28;20103;-76
2023/06/16 09:34:43;;;;;;;2.42;1.52;;;25.10;52.50;;;;;;5075772;28;20075;-77
2023/06/16 09:37:17;;;;;;;1.88;1.73;;;25.20;52.40;;;;;;5076412;28;20025;-76
2023/06/16 09:39:43;;;;;;;2.03;1.80;;;25.50;51.20;;;;;;5079842;28;20380;-78
2023/06/16 09:42:16;;;;;;;3.25;1.50;;;25.70;51.10;;;;;;5079935;28;20024;-78
2023/06/16 09:44:42;;;;;;;4.03;2.00;;;25.70;50.90;;;;;;5077686;28;20074;-77
2023/06/16 09:47:11;;;;;;;1.42;1.33;;;25.40;50.90;;;;;;5076052;28;20036;-77
2023/06/16 09:49:37;;;;;;;1.58;1.48;;;25.00;50.60;;;;;;5075811;28;20036;-76
2023/06/16 09:52:03;;;;;;;1.92;1.65;;;24.80;52.50;;;;;;5076600;28;20157;-77
2023/06/16 09:54:29;;;;;;;1.80;1.70;;;24.60;52.40;;;;;;5077401;28;20031;-76
2023/06/16 09:56:55;;;;;;;2.28;1.60;;;24.50;55.20;;;;;;5076710;28;20036;-77
2023/06/16 09:59:23;;;;;;;1.52;1.23;;;24.40;55.70;;;;;;5077552;28;20377;-77
2023/06/16 10:01:50;;;;;;;4.80;1.73;;;24.40;55.10;;;;;;5077413;28;20013;-76
2023/06/16 10:04:16;;;;;;;5.03;1.80;;;24.30;54.60;;;;;;5077335;28;20066;-76
2023/06/16 10:07:02;;;;;;;1.48;1.38;;;24.30;56.00;;;;;;5075442;28;20024;-77
2023/06/16 10:09:38;;;;;;;4.95;2.00;;;24.20;54.70;;;;;;5075300;28;20058;-76
2023/06/16 10:12:04;;;;;;;2.55;1.50;;;24.20;54.10;;;;;;5075312;28;20521;-76
2023/06/16 10:14:34;;;;;;;2.75;1.42;;;24.10;55.10;;;;;;5075251;28;20021;-76
2023/06/16 10:17:01;;;;;;;2.20;2.00;;;24.10;54.70;;;;;;5074812;28;20056;-76
2023/06/16 10:19:30;;;;;;;1.80;1.52;;;24.30;56.40;;;;;;5075661;28;20497;-76
2023/06/16 10:21:56;;;;;;;3.88;1.50;;;24.40;55.50;;;;;;5074921;28;20105;-77
2023/06/16 10:24:22;;;;;;;3.88;1.80;;;24.40;54.30;;;;;;5076903;28;20055;-77
2023/06/16 10:26:49;;;;;;;1.77;1.33;;;24.50;54.80;;;;;;5076010;28;20017;-77
2023/06/16 10:29:17;;;;;;;3.55;1.77;;;24.60;53.30;;;;;;5076231;28;20474;-77
2023/06/16 10:31:44;;;;;;;2.17;1.27;;;24.90;54.70;;;;;;5076740;28;20028;-77
2023/06/16 10:34:18;;;;;;;3.58;1.70;;;25.20;52.70;;;;;;5076413;28;20110;-77
2023/06/16 10:36:45;;;;;;;1.83;1.40;;;25.30;51.70;;;;;;5076383;28;20023;-77
2023/06/16 10:39:16;;;;;;;1.95;1.48;;;25.40;51.20;;;;;;5076804;28;20431;-76
2023/06/16 10:41:58;;;;;;;3.90;1.55;;;25.60;52.80;;;;;;5077222;28;20017;-78
2023/06/16 10:44:31;;;;;;;4.03;1.48;;;25.60;50.80;;;;;;5074192;28;20099;-76
2023/06/16 10:47:09;;;;;;;2.13;1.52;;;25.70;49.90;;;;;;5073851;28;20033;-77
2023/06/16 10:49:57;;;;;;;2.10;1.55;;;25.70;49.70;;;;;;5073678;28;20102;-77
2023/06/16 10:52:29;;;;;;;1.60;1.45;;;25.60;47.20;;;;;;5072937;28;20020;-76
2023/06/16 10:54:56;;;;;;;3.28;1.75;;;25.60;48.60;;;;;;5072908;28;20028;-74
2023/06/16 10:57:25;;;;;;;1.63;1.42;;;25.40;48.90;;;;;;5072509;28;20055;-76
2023/06/16 11:00:13;;;;;;;1.40;1.30;;;25.20;49.40;;;;;;5073195;28;20032;-78
2023/06/16 11:02:53;;;;;;;1.98;1.50;;;25.20;49.50;;;;;;5074529;28;20030;-77
2023/06/16 11:05:22;;;;;;;1.60;1.42;;;25.00;49.20;;;;;;5072695;28;20020;-77
2023/06/16 11:08:05;;;;;;;1.88;1.55;;;24.70;50.10;;;;;;5072791;28;20526;-76
2023/06/16 11:10:46;;;;;;;1.73;1.55;;;24.60;50.70;;;;;;5073346;28;20366;-77
2023/06/16 11:13:16;;;;;;;2.53;1.30;;;24.30;51.30;;;;;;5073019;28;20100;-77
2023/06/16 11:15:42;;;;;;;1.40;1.30;;;24.30;52.20;;;;;;5073760;28;20158;-77
2023/06/16 11:18:08;;;;;;;2.63;1.60;;;24.30;53.30;;;;;;5072158;28;20097;-76
2023/06/16 11:20:37;;;;;;;3.17;1.38;;;24.30;52.80;;;;;;5072974;28;20048;-77
2023/06/16 11:23:03;;;;;;;2.63;1.70;;;24.20;51.00;;;;;;5072726;28;20242;-77
2023/06/16 11:25:29;;;;;;;2.05;1.55;;;24.30;50.60;;;;;;5072557;28;20496;-75
2023/06/16 11:27:55;;;;;;;2.72;1.60;;;24.30;51.10;;;;;;5072740;28;20081;-78
2023/06/16 11:30:21;;;;;;;2.45;1.75;;;24.50;50.70;;;;;;5072471;28;20070;-77
2023/06/16 11:32:48;;;;;;;2.70;1.40;;;24.60;50.90;;;;;;5070333;28;20028;-76
2023/06/16 11:35:14;;;;;;;1.88;1.50;;;24.60;50.30;;;;;;5071983;28;20094;-77
2023/06/16 11:37:54;;;;;;;2.40;1.80;;;24.70;50.40;;;;;;5072214;28;20477;-76
2023/06/16 11:40:22;;;;;;;1.65;1.48;;;24.80;50.40;;;;;;5072388;28;20028;-77
2023/06/16 11:42:58;;;;;;;1.58;1.40;;;24.80;51.50;;;;;;5072306;28;20183;-77
2023/06/16 11:45:27;;;;;;;2.38;2.03;;;25.00;53.10;;;;;;5073157;28;20040;-76
2023/06/16 11:47:57;;;;;;;2.95;1.80;;;24.90;50.90;;;;;;5054865;28;20086;-75
2023/06/16 11:50:23;;;;;;;4.88;1.88;;;24.90;49.60;;;;;;5073516;28;20050;-75
2023/06/16 11:52:50;;;;;;;2.92;1.98;;;24.80;50.20;;;;;;5073070;28;20413;-76
2023/06/16 11:55:16;;;;;;;2.55;1.63;;;25.00;53.10;;;;;;5075243;28;20482;-78
2023/06/16 11:57:44;;;;;;;3.92;2.30;;;25.00;50.30;;;;;;5074540;28;20166;-77
2023/06/16 12:00:12;;;;;;;3.97;2.17;;;24.80;49.40;;;;;;5075037;28;20078;-76
2023/06/16 12:02:38;;;;;;;4.50;1.67;;;24.90;50.90;;;;;;5075100;28;20477;-75
2023/06/16 12:05:07;;;;;;;1.80;1.42;;;24.90;51.50;;;;;;5075174;28;20021;-76
2023/06/16 12:07:33;;;;;;;3.85;1.92;;;24.80;50.20;;;;;;5074648;28;20475;-75
2023/06/16 12:10:05;;;;;;;2.03;1.83;;;24.80;50.10;;;;;;5074586;28;20040;-76
2023/06/16 12:12:31;;;;;;;1.65;1.50;;;24.90;51.30;;;;;;5074671;28;20481;-76
2023/06/16 12:15:02;;;;;;;2.20;1.88;;;24.90;49.30;;;;;;5074734;28;20025;-77
2023/06/16 12:17:28;;;;;;;2.95;2.00;;;25.20;49.80;;;;;;5074046;28;20094;-75
2023/06/16 12:19:54;;;;;;;2.50;1.45;;;25.40;49.00;;;;;;5074517;28;20020;-76
2023/06/16 12:22:21;;;;;;;3.33;1.52;;;25.70;49.90;;;;;;5074737;28;20024;-76
2023/06/16 12:24:47;;;;;;;5.05;1.92;;;25.60;47.70;;;;;;5075270;28;20024;-76
2023/06/16 12:27:24;;;;;;;3.45;1.63;;;25.30;46.90;;;;;;5073268;28;20060;-75
2023/06/16 12:29:56;;;;;;;2.08;1.50;;;25.20;46.90;;;;;;5074965;28;20028;-76
2023/06/16 12:32:29;;;;;;;4.05;1.85;;;25.00;48.80;;;;;;5079251;28;20075;-77
2023/06/16 12:34:55;;;;;;;4.45;1.67;;;25.00;48.00;;;;;;5078737;28;20077;-76
2023/06/16 12:37:28;;;;;;;4.22;1.92;;;25.30;47.70;;;;;;5077757;28;20029;-76
2023/06/16 12:40:03;;;;;;;2.08;1.85;;;25.60;47.30;;;;;;5079477;28;20020;-77
2023/06/16 12:42:29;;;;;;;2.60;1.60;;;26.00;46.60;;;;;;5080309;28;20055;-74
2023/06/16 12:45:01;;;;;;;2.58;1.90;;;26.00;44.50;;;;;;5100763;28;20028;-76
2023/06/16 12:47:28;;;;;;;1.60;1.48;;;25.70;44.70;;;;;;5095662;28;20032;-77
2023/06/16 12:49:55;;;;;;;3.53;2.03;;;25.40;44.90;;;;;;5097154;28;20070;-78